PWSweather.com
Personal Weather Stations
Station Observations
948974
Valtournenche, AostaIT 11028

ValtournencheAostaIT 11028

Lat: 45.877222, Lon: 7.625556

Elevation: 5085.3018

Station Type: PCE-FWS 20

http://www.cdso.it

High Low Average
Temperature 61.5°F16.4°F 55.2°F12.9°F 58.2°F14.6°F
Dew Point 60.8°F16.0°F 54.3°F12.4°F 57.8°F14.3°F
Winds 3.0 mph -4.8 mph - Calm Calm 1.2 mph 1.9 mph
Wind Gusts 8.0 mph12.9 mph -- 3.2 mph5.1 mph
Humidity 99% 96% 99%
Pressure 30.17 in1021.70 in 30.04 in1017.30 in -
Precipitation 0.86 in21.80 in - -
Hour Temp Dew Point Humidity Winds Wind Gusts Pressure Precip Precip Rate Daily Precip Total
12:03 AM 57.7°F14.3°C 57.0°F13.9°C 98% 3.0 mph S4.8 kmh S 5.0 mph8.0 kmh 30.11 in1019.6 mb 0.00 in0.0 mm 0.00 in0.0 mm 0.00 in0.0 mm
12:21 AM 57.6°F14.2°C 56.8°F13.8°C 97% 1.0 mph S1.6 kmh S 4.0 mph6.4 kmh 30.10 in1019.3 mb 0.00 in0.0 mm 0.00 in0.0 mm 0.00 in0.0 mm
12:42 AM 57.6°F14.2°C 57.0°F13.9°C 98% 1.0 mph S1.6 kmh S 3.0 mph4.8 kmh 30.10 in1019.3 mb 0.00 in0.0 mm 0.00 in0.0 mm 0.00 in0.0 mm
01:03 AM 57.7°F14.3°C 57.0°F13.9°C 97% Calm Calm 2.0 mph3.2 kmh 30.09 in1019.0 mb 0.00 in0.0 mm 0.00 in0.0 mm 0.00 in0.0 mm
01:21 AM 58.0°F14.4°C 57.4°F14.1°C 98% Calm Calm -- 30.08 in1018.6 mb 0.00 in0.0 mm 0.00 in0.0 mm 0.00 in0.0 mm
01:42 AM 58.1°F14.5°C 57.3°F14.1°C 97% Calm Calm 2.0 mph3.2 kmh 30.08 in1018.6 mb 0.00 in0.0 mm 0.00 in0.0 mm 0.00 in0.0 mm
02:03 AM 58.5°F14.7°C 57.6°F14.2°C 97% 2.0 mph S3.2 kmh S 4.0 mph6.4 kmh 30.08 in1018.6 mb 0.01 in0.3 mm 0.02 in0.5 mm 0.01 in0.3 mm
02:21 AM 58.1°F14.5°C 57.5°F14.2°C 98% 1.0 mph S1.6 kmh S 4.0 mph6.4 kmh 30.08 in1018.6 mb 0.04 in1.0 mm 0.10 in2.5 mm 0.04 in1.0 mm
02:42 AM 57.8°F14.3°C 57.6°F14.2°C 99% 2.0 mph S3.2 kmh S 4.0 mph6.4 kmh 30.08 in1018.6 mb 0.05 in1.3 mm 0.03 in0.8 mm 0.05 in1.3 mm
03:03 AM 57.7°F14.3°C 57.5°F14.2°C 99% 2.0 mph SE3.2 kmh SE 4.0 mph6.4 kmh 30.08 in1018.6 mb 0.04 in1.0 mm 0.00 in0.0 mm 0.05 in1.3 mm
03:21 AM 57.8°F14.3°C 57.5°F14.2°C 99% 1.0 mph SE1.6 kmh SE 2.0 mph3.2 kmh 30.07 in1018.3 mb 0.01 in0.3 mm 0.00 in0.0 mm 0.05 in1.3 mm
03:42 AM 57.3°F14.1°C 57.1°F13.9°C 99% Calm Calm 2.0 mph3.2 kmh 30.08 in1018.6 mb 0.00 in0.0 mm 0.00 in0.0 mm 0.05 in1.3 mm
04:03 AM 57.1°F13.9°C 56.8°F13.8°C 99% 1.0 mph SE1.6 kmh SE 4.0 mph6.4 kmh 30.09 in1019.0 mb 0.00 in0.0 mm 0.00 in0.0 mm 0.05 in1.3 mm
04:21 AM 57.0°F13.9°C 56.7°F13.7°C 99% 1.0 mph SE1.6 kmh SE 4.0 mph6.4 kmh 30.10 in1019.3 mb 0.00 in0.0 mm 0.00 in0.0 mm 0.05 in1.3 mm
04:42 AM 57.0°F13.9°C 56.7°F13.7°C 99% 1.0 mph SE1.6 kmh SE 2.0 mph3.2 kmh 30.09 in1019.0 mb 0.01 in0.3 mm 0.03 in0.8 mm 0.06 in1.5 mm
05:03 AM 57.2°F14.0°C 56.9°F13.8°C 99% 2.0 mph SE3.2 kmh SE 8.0 mph12.9 kmh 30.08 in1018.6 mb 0.01 in0.3 mm 0.00 in0.0 mm 0.06 in1.5 mm
05:21 AM 57.0°F13.9°C 56.7°F13.7°C 99% 3.0 mph SE4.8 kmh SE 7.0 mph11.3 kmh 30.07 in1018.3 mb 0.01 in0.3 mm 0.00 in0.0 mm 0.06 in1.5 mm
05:42 AM 56.2°F13.4°C 56.0°F13.3°C 99% 1.0 mph SE1.6 kmh SE 3.0 mph4.8 kmh 30.09 in1019.0 mb 0.00 in0.0 mm 0.00 in0.0 mm 0.06 in1.5 mm
06:03 AM 56.0°F13.3°C 55.7°F13.2°C 99% 2.0 mph SE3.2 kmh SE 4.0 mph6.4 kmh 30.10 in1019.3 mb 0.00 in0.0 mm 0.00 in0.0 mm 0.06 in1.5 mm
06:21 AM 56.2°F13.4°C 55.9°F13.3°C 99% 3.0 mph SE4.8 kmh SE 4.0 mph6.4 kmh 30.10 in1019.3 mb 0.00 in0.0 mm 0.00 in0.0 mm 0.06 in1.5 mm
06:42 AM 56.4°F13.6°C 56.1°F13.4°C 99% 2.0 mph SE3.2 kmh SE 4.0 mph6.4 kmh 30.10 in1019.3 mb 0.00 in0.0 mm 0.00 in0.0 mm 0.06 in1.5 mm
07:21 AM 56.8°F13.8°C 56.6°F13.7°C 99% Calm Calm 2.0 mph3.2 kmh 30.11 in1019.6 mb 0.01 in0.3 mm 0.03 in0.8 mm 0.07 in1.8 mm
07:42 AM 56.9°F13.8°C 56.6°F13.7°C 99% 1.0 mph SE1.6 kmh SE 3.0 mph4.8 kmh 30.10 in1019.3 mb 0.01 in0.3 mm 0.00 in0.0 mm 0.07 in1.8 mm
08:03 AM 57.2°F14.0°C 56.9°F13.8°C 99% 3.0 mph SE4.8 kmh SE 6.0 mph9.7 kmh 30.10 in1019.3 mb 0.02 in0.5 mm 0.02 in0.5 mm 0.08 in2.0 mm
08:21 AM 57.7°F14.3°C 57.4°F14.1°C 99% 1.0 mph SE1.6 kmh SE 4.0 mph6.4 kmh 30.09 in1019.0 mb 0.01 in0.3 mm 0.00 in0.0 mm 0.08 in2.0 mm
08:42 AM 58.0°F14.4°C 57.7°F14.3°C 99% 1.0 mph SE1.6 kmh SE 3.0 mph4.8 kmh 30.09 in1019.0 mb 0.01 in0.3 mm 0.00 in0.0 mm 0.08 in2.0 mm
09:03 AM 58.7°F14.8°C 58.4°F14.7°C 99% Calm Calm 1.0 mph1.6 kmh 30.08 in1018.6 mb 0.00 in0.0 mm 0.00 in0.0 mm 0.08 in2.0 mm
09:21 AM 59.0°F15.0°C 58.8°F14.9°C 99% 1.0 mph SE1.6 kmh SE 3.0 mph4.8 kmh 30.08 in1018.6 mb 0.00 in0.0 mm 0.00 in0.0 mm 0.08 in2.0 mm
09:42 AM 58.9°F14.9°C 58.4°F14.7°C 98% 1.0 mph SE1.6 kmh SE 4.0 mph6.4 kmh 30.09 in1019.0 mb 0.01 in0.3 mm 0.03 in0.8 mm 0.09 in2.3 mm
10:03 AM 58.4°F14.7°C 58.1°F14.5°C 99% 1.0 mph SE1.6 kmh SE 2.0 mph3.2 kmh 30.10 in1019.3 mb 0.01 in0.3 mm 0.00 in0.0 mm 0.09 in2.3 mm
10:21 AM 58.5°F14.7°C 58.2°F14.6°C 99% 1.0 mph SE1.6 kmh SE 2.0 mph3.2 kmh 30.10 in1019.3 mb 0.01 in0.3 mm 0.00 in0.0 mm 0.09 in2.3 mm
10:42 AM 58.6°F14.8°C 58.4°F14.7°C 99% 1.0 mph SE1.6 kmh SE 2.0 mph3.2 kmh 30.10 in1019.3 mb 0.00 in0.0 mm 0.00 in0.0 mm 0.09 in2.3 mm
11:03 AM 58.4°F14.7°C 58.1°F14.5°C 99% 1.0 mph SE1.6 kmh SE 4.0 mph6.4 kmh 30.10 in1019.3 mb 0.01 in0.3 mm 0.02 in0.5 mm 0.11 in2.8 mm
11:21 AM 59.1°F15.1°C 58.8°F14.9°C 99% 1.0 mph SE1.6 kmh SE 3.0 mph4.8 kmh 30.10 in1019.3 mb 0.01 in0.3 mm 0.00 in0.0 mm 0.11 in2.8 mm
11:42 AM 59.4°F15.2°C 59.1°F15.1°C 99% 1.0 mph SE1.6 kmh SE 3.0 mph4.8 kmh 30.09 in1019.0 mb 0.01 in0.3 mm 0.00 in0.0 mm 0.11 in2.8 mm
12:03 PM 60.5°F15.8°C 60.2°F15.7°C 99% 1.0 mph SE1.6 kmh SE 2.0 mph3.2 kmh 30.06 in1017.9 mb 0.00 in0.0 mm 0.00 in0.0 mm 0.11 in2.8 mm
12:21 PM 61.5°F16.4°C 60.8°F16.0°C 98% 2.0 mph SE3.2 kmh SE 3.0 mph4.8 kmh 30.04 in1017.3 mb 0.00 in0.0 mm 0.00 in0.0 mm 0.11 in2.8 mm
12:42 PM 61.2°F16.2°C 60.1°F15.6°C 96% 3.0 mph SE4.8 kmh SE 5.0 mph8.0 kmh 30.05 in1017.6 mb 0.00 in0.0 mm 0.00 in0.0 mm 0.11 in2.8 mm
01:21 PM 61.0°F16.1°C 59.8°F15.4°C 96% 3.0 mph SE4.8 kmh SE 4.0 mph6.4 kmh 30.04 in1017.3 mb 0.00 in0.0 mm 0.00 in0.0 mm 0.11 in2.8 mm
01:42 PM 60.0°F15.6°C 59.4°F15.2°C 98% 3.0 mph SE4.8 kmh SE 7.0 mph11.3 kmh 30.05 in1017.6 mb 0.00 in0.0 mm 0.00 in0.0 mm 0.11 in2.8 mm
02:21 PM 58.3°F14.6°C 58.0°F14.4°C 99% 1.0 mph S1.6 kmh S 4.0 mph6.4 kmh 30.09 in1019.0 mb 0.00 in0.0 mm 0.00 in0.0 mm 0.11 in2.8 mm
02:42 PM 59.1°F15.1°C 58.8°F14.9°C 99% 1.0 mph S1.6 kmh S 3.0 mph4.8 kmh 30.08 in1018.6 mb 0.00 in0.0 mm 0.00 in0.0 mm 0.11 in2.8 mm
03:03 PM 60.0°F15.6°C 59.7°F15.4°C 99% 1.0 mph S1.6 kmh S 3.0 mph4.8 kmh 30.06 in1017.9 mb 0.00 in0.0 mm 0.00 in0.0 mm 0.11 in2.8 mm
03:21 PM 60.3°F15.7°C 60.0°F15.6°C 99% Calm Calm 2.0 mph3.2 kmh 30.05 in1017.6 mb 0.00 in0.0 mm 0.00 in0.0 mm 0.11 in2.8 mm
03:42 PM 59.9°F15.5°C 59.6°F15.3°C 99% 1.0 mph S1.6 kmh S 3.0 mph4.8 kmh 30.06 in1017.9 mb 0.06 in1.5 mm 0.17 in4.3 mm 0.17 in4.3 mm
04:03 PM 59.3°F15.2°C 59.0°F15.0°C 99% 1.0 mph S1.6 kmh S 3.0 mph4.8 kmh 30.07 in1018.3 mb 0.08 in2.0 mm 0.03 in0.8 mm 0.19 in4.8 mm
04:21 PM 59.6°F15.3°C 59.3°F15.2°C 99% Calm Calm 2.0 mph3.2 kmh 30.07 in1018.3 mb 0.08 in2.0 mm 0.00 in0.0 mm 0.19 in4.8 mm
04:42 PM 59.7°F15.4°C 59.4°F15.2°C 99% Calm Calm 2.0 mph3.2 kmh 30.06 in1017.9 mb 0.02 in0.5 mm 0.00 in0.0 mm 0.19 in4.8 mm
05:03 PM 59.8°F15.4°C 59.5°F15.3°C 99% 2.0 mph S3.2 kmh S 4.0 mph6.4 kmh 30.07 in1018.3 mb 0.01 in0.3 mm 0.00 in0.0 mm 0.20 in5.1 mm
05:21 PM 59.0°F15.0°C 58.8°F14.9°C 99% 1.0 mph S1.6 kmh S 3.0 mph4.8 kmh 30.09 in1019.0 mb 0.04 in1.0 mm 0.10 in2.5 mm 0.22 in5.6 mm
05:42 PM 58.9°F14.9°C 58.6°F14.8°C 99% 1.0 mph S1.6 kmh S 3.0 mph4.8 kmh 30.09 in1019.0 mb 0.04 in1.0 mm 0.00 in0.0 mm 0.22 in5.6 mm
06:03 PM 58.6°F14.8°C 58.4°F14.7°C 99% 2.0 mph S3.2 kmh S 4.0 mph6.4 kmh 30.09 in1019.0 mb 0.07 in1.8 mm 0.05 in1.3 mm 0.27 in6.9 mm
06:21 PM 58.3°F14.6°C 58.0°F14.4°C 99% Calm Calm 3.0 mph4.8 kmh 30.08 in1018.6 mb 0.05 in1.3 mm 0.00 in0.0 mm 0.27 in6.9 mm
06:42 PM 58.1°F14.5°C 57.8°F14.3°C 99% 2.0 mph S3.2 kmh S 4.0 mph6.4 kmh 30.09 in1019.0 mb 0.07 in1.8 mm 0.06 in1.5 mm 0.30 in7.6 mm
07:03 PM 58.2°F14.6°C 58.0°F14.4°C 99% 1.0 mph S1.6 kmh S 2.0 mph3.2 kmh 30.10 in1019.3 mb 0.02 in0.5 mm 0.00 in0.0 mm 0.30 in7.6 mm
07:21 PM 58.1°F14.5°C 57.8°F14.3°C 99% Calm Calm 2.0 mph3.2 kmh 30.11 in1019.6 mb 0.02 in0.5 mm 0.00 in0.0 mm 0.30 in7.6 mm
07:42 PM 58.2°F14.6°C 57.9°F14.4°C 99% Calm Calm 2.0 mph3.2 kmh 30.11 in1019.6 mb 0.00 in0.0 mm 0.00 in0.0 mm 0.30 in7.6 mm
08:03 PM 58.1°F14.5°C 57.8°F14.3°C 99% Calm Calm 2.0 mph3.2 kmh 30.11 in1019.6 mb 0.00 in0.0 mm 0.00 in0.0 mm 0.30 in7.6 mm
08:42 PM 57.9°F14.4°C 57.6°F14.2°C 99% Calm Calm 2.0 mph3.2 kmh 30.12 in1020.0 mb 0.00 in0.0 mm 0.00 in0.0 mm 0.30 in7.6 mm
09:03 PM 57.6°F14.2°C 57.3°F14.1°C 99% Calm Calm 2.0 mph3.2 kmh 30.13 in1020.3 mb 0.00 in0.0 mm 0.00 in0.0 mm 0.30 in7.6 mm
09:21 PM 57.4°F14.1°C 57.1°F13.9°C 99% 2.0 mph S3.2 kmh S 4.0 mph6.4 kmh 30.12 in1020.0 mb 0.00 in0.0 mm 0.00 in0.0 mm 0.30 in7.6 mm
09:42 PM 57.3°F14.1°C 57.0°F13.9°C 99% Calm Calm 2.0 mph3.2 kmh 30.13 in1020.3 mb 0.00 in0.0 mm 0.00 in0.0 mm 0.30 in7.6 mm
10:03 PM 56.7°F13.7°C 56.4°F13.6°C 99% 2.0 mph SW3.2 kmh SW 4.0 mph6.4 kmh 30.14 in1020.7 mb 0.00 in0.0 mm 0.00 in0.0 mm 0.30 in7.6 mm
10:21 PM 55.3°F12.9°C 54.7°F12.6°C 98% 1.0 mph SW1.6 kmh SW 2.0 mph3.2 kmh 30.16 in1021.3 mb 0.00 in0.0 mm 0.00 in0.0 mm 0.30 in7.6 mm
10:42 PM 55.2°F12.9°C 54.3°F12.4°C 97% 1.0 mph SW1.6 kmh SW 5.0 mph8.0 kmh 30.17 in1021.7 mb 0.00 in0.0 mm 0.00 in0.0 mm 0.30 in7.6 mm